sensor_id;sensor_type;location;lat;lon;timestamp;P1;durP1;ratioP1;P2;durP2;ratioP2
56299;SDS011;42209;6.376;-10.782;2022-11-14T00:01:26;2.28;;;1.13;;
56299;SDS011;42209;6.376;-10.782;2022-11-14T00:04:13;1.75;;;1.30;;
56299;SDS011;42209;6.376;-10.782;2022-11-14T00:06:59;1.88;;;1.33;;
56299;SDS011;42209;6.376;-10.782;2022-11-14T00:09:46;1.92;;;1.35;;
56299;SDS011;42209;6.376;-10.782;2022-11-14T00:12:32;2.13;;;0.73;;
56299;SDS011;42209;6.376;-10.782;2022-11-14T00:15:19;1.90;;;1.17;;
56299;SDS011;42209;6.376;-10.782;2022-11-14T00:18:05;1.73;;;1.30;;
56299;SDS011;42209;6.376;-10.782;2022-11-14T00:20:52;1.67;;;1.05;;
56299;SDS011;42209;6.376;-10.782;2022-11-14T00:23:39;1.95;;;1.50;;
56299;SDS011;42209;6.376;-10.782;2022-11-14T00:26:25;1.42;;;1.10;;
56299;SDS011;42209;6.376;-10.782;2022-11-14T00:29:12;2.25;;;1.45;;
56299;SDS011;42209;6.376;-10.782;2022-11-14T00:31:59;1.33;;;1.05;;
56299;SDS011;42209;6.376;-10.782;2022-11-14T00:34:46;1.90;;;0.85;;
56299;SDS011;42209;6.376;-10.782;2022-11-14T00:37:33;2.25;;;1.40;;
56299;SDS011;42209;6.376;-10.782;2022-11-14T00:40:20;1.27;;;0.80;;
56299;SDS011;42209;6.376;-10.782;2022-11-14T00:43:06;1.52;;;0.70;;
56299;SDS011;42209;6.376;-10.782;2022-11-14T00:45:52;2.00;;;1.23;;
56299;SDS011;42209;6.376;-10.782;2022-11-14T00:48:39;2.53;;;1.10;;
56299;SDS011;42209;6.376;-10.782;2022-11-14T00:51:25;1.63;;;0.80;;
56299;SDS011;42209;6.376;-10.782;2022-11-14T00:54:12;1.33;;;1.02;;
56299;SDS011;42209;6.376;-10.782;2022-11-14T00:56:58;2.30;;;1.00;;
56299;SDS011;42209;6.376;-10.782;2022-11-14T00:59:45;1.80;;;0.90;;
56299;SDS011;42209;6.376;-10.782;2022-11-14T01:02:31;1.25;;;0.80;;
56299;SDS011;42209;6.376;-10.782;2022-11-14T01:05:18;1.85;;;1.38;;
56299;SDS011;42209;6.376;-10.782;2022-11-14T01:08:05;1.65;;;0.90;;
56299;SDS011;42209;6.376;-10.782;2022-11-14T01:10:51;1.60;;;0.98;;
56299;SDS011;42209;6.376;-10.782;2022-11-14T01:13:38;1.40;;;0.90;;
56299;SDS011;42209;6.376;-10.782;2022-11-14T01:16:24;1.30;;;1.05;;
56299;SDS011;42209;6.376;-10.782;2022-11-14T01:19:10;2.50;;;0.82;;
56299;SDS011;42209;6.376;-10.782;2022-11-14T01:21:57;1.08;;;0.65;;
56299;SDS011;42209;6.376;-10.782;2022-11-14T01:24:50;3.15;;;1.05;;
56299;SDS011;42209;6.376;-10.782;2022-11-14T01:27:36;1.70;;;0.93;;
56299;SDS011;42209;6.376;-10.782;2022-11-14T01:30:22;1.52;;;1.00;;
56299;SDS011;42209;6.376;-10.782;2022-11-14T01:33:09;2.17;;;0.80;;
56299;SDS011;42209;6.376;-10.782;2022-11-14T01:35:58;1.65;;;1.13;;
56299;SDS011;42209;6.376;-10.782;2022-11-14T01:38:45;2.05;;;0.95;;
56299;SDS011;42209;6.376;-10.782;2022-11-14T01:41:36;3.08;;;1.17;;
56299;SDS011;42209;6.376;-10.782;2022-11-14T01:47:35;2.53;;;0.85;;
56299;SDS011;42209;6.376;-10.782;2022-11-14T01:50:21;1.73;;;0.70;;
56299;SDS011;42209;6.376;-10.782;2022-11-14T01:53:08;2.38;;;0.63;;
56299;SDS011;42209;6.376;-10.782;2022-11-14T01:55:55;1.08;;;0.80;;
56299;SDS011;42209;6.376;-10.782;2022-11-14T01:58:45;1.67;;;1.02;;
56299;SDS011;42209;6.376;-10.782;2022-11-14T02:01:40;2.08;;;0.80;;
56299;SDS011;42209;6.376;-10.782;2022-11-14T02:04:38;2.28;;;0.82;;
56299;SDS011;42209;6.376;-10.782;2022-11-14T02:07:28;2.10;;;1.13;;
56299;SDS011;42209;6.376;-10.782;2022-11-14T02:10:19;2.10;;;0.80;;
56299;SDS011;42209;6.376;-10.782;2022-11-14T02:13:06;1.30;;;0.80;;
56299;SDS011;42209;6.376;-10.782;2022-11-14T02:15:53;1.85;;;0.98;;
56299;SDS011;42209;6.376;-10.782;2022-11-14T02:18:39;1.20;;;0.70;;
56299;SDS011;42209;6.376;-10.782;2022-11-14T02:21:26;2.05;;;1.40;;
56299;SDS011;42209;6.376;-10.782;2022-11-14T02:24:13;2.05;;;1.08;;
56299;SDS011;42209;6.376;-10.782;2022-11-14T02:27:00;1.67;;;0.98;;
56299;SDS011;42209;6.376;-10.782;2022-11-14T02:32:34;2.08;;;1.00;;
56299;SDS011;42209;6.376;-10.782;2022-11-14T02:35:41;1.65;;;1.00;;
56299;SDS011;42209;6.376;-10.782;2022-11-14T02:38:27;1.70;;;1.23;;
56299;SDS011;42209;6.376;-10.782;2022-11-14T02:41:14;1.67;;;1.15;;
56299;SDS011;42209;6.376;-10.782;2022-11-14T02:44:01;1.88;;;0.85;;
56299;SDS011;42209;6.376;-10.782;2022-11-14T02:46:47;1.88;;;1.00;;
56299;SDS011;42209;6.376;-10.782;2022-11-14T02:49:33;2.53;;;0.80;;
56299;SDS011;42209;6.376;-10.782;2022-11-14T02:52:19;1.95;;;1.08;;
56299;SDS011;42209;6.376;-10.782;2022-11-14T02:55:06;1.08;;;0.63;;
56299;SDS011;42209;6.376;-10.782;2022-11-14T02:57:53;1.67;;;1.10;;
56299;SDS011;42209;6.376;-10.782;2022-11-14T03:00:39;1.55;;;1.13;;
56299;SDS011;42209;6.376;-10.782;2022-11-14T03:03:45;2.00;;;1.17;;
56299;SDS011;42209;6.376;-10.782;2022-11-14T03:06:32;2.17;;;1.52;;
56299;SDS011;42209;6.376;-10.782;2022-11-14T03:09:18;1.98;;;1.10;;
56299;SDS011;42209;6.376;-10.782;2022-11-14T03:12:05;1.98;;;1.20;;
56299;SDS011;42209;6.376;-10.782;2022-11-14T03:14:51;2.53;;;0.77;;
56299;SDS011;42209;6.376;-10.782;2022-11-14T03:17:38;1.50;;;0.90;;
56299;SDS011;42209;6.376;-10.782;2022-11-14T03:20:24;1.92;;;1.20;;
56299;SDS011;42209;6.376;-10.782;2022-11-14T03:23:10;1.75;;;0.65;;
56299;SDS011;42209;6.376;-10.782;2022-11-14T03:26:00;2.63;;;0.93;;
56299;SDS011;42209;6.376;-10.782;2022-11-14T03:28:48;1.67;;;0.82;;
56299;SDS011;42209;6.376;-10.782;2022-11-14T03:31:34;1.13;;;0.63;;
56299;SDS011;42209;6.376;-10.782;2022-11-14T03:34:21;1.33;;;0.77;;
56299;SDS011;42209;6.376;-10.782;2022-11-14T03:37:07;1.10;;;0.77;;
56299;SDS011;42209;6.376;-10.782;2022-11-14T03:39:54;1.73;;;1.15;;
56299;SDS011;42209;6.376;-10.782;2022-11-14T03:42:40;3.78;;;1.58;;
56299;SDS011;42209;6.376;-10.782;2022-11-14T03:45:27;1.67;;;0.70;;
56299;SDS011;42209;6.376;-10.782;2022-11-14T03:48:13;1.38;;;0.80;;
56299;SDS011;42209;6.376;-10.782;2022-11-14T03:51:00;2.67;;;0.90;;
56299;SDS011;42209;6.376;-10.782;2022-11-14T03:53:46;2.38;;;1.30;;
56299;SDS011;42209;6.376;-10.782;2022-11-14T03:56:32;2.15;;;0.90;;
56299;SDS011;42209;6.376;-10.782;2022-11-14T03:59:19;1.88;;;1.15;;
56299;SDS011;42209;6.376;-10.782;2022-11-14T04:02:05;1.20;;;0.63;;
56299;SDS011;42209;6.376;-10.782;2022-11-14T04:04:52;0.95;;;0.68;;
56299;SDS011;42209;6.376;-10.782;2022-11-14T04:07:38;1.67;;;1.00;;
56299;SDS011;42209;6.376;-10.782;2022-11-14T04:10:24;1.15;;;0.73;;
56299;SDS011;42209;6.376;-10.782;2022-11-14T04:13:11;1.40;;;1.20;;
56299;SDS011;42209;6.376;-10.782;2022-11-14T04:15:57;2.40;;;1.00;;
56299;SDS011;42209;6.376;-10.782;2022-11-14T04:18:44;1.20;;;0.60;;
56299;SDS011;42209;6.376;-10.782;2022-11-14T04:21:31;1.30;;;0.80;;
56299;SDS011;42209;6.376;-10.782;2022-11-14T04:24:17;1.58;;;0.88;;
56299;SDS011;42209;6.376;-10.782;2022-11-14T04:27:04;1.42;;;0.88;;
56299;SDS011;42209;6.376;-10.782;2022-11-14T04:29:50;1.15;;;0.70;;
56299;SDS011;42209;6.376;-10.782;2022-11-14T04:32:37;1.50;;;0.80;;
56299;SDS011;42209;6.376;-10.782;2022-11-14T04:35:23;1.40;;;0.77;;
56299;SDS011;42209;6.376;-10.782;2022-11-14T04:38:09;1.67;;;1.20;;
56299;SDS011;42209;6.376;-10.782;2022-11-14T04:40:56;1.23;;;0.82;;
56299;SDS011;42209;6.376;-10.782;2022-11-14T04:43:42;2.60;;;1.15;;
56299;SDS011;42209;6.376;-10.782;2022-11-14T04:46:34;1.85;;;0.90;;
56299;SDS011;42209;6.376;-10.782;2022-11-14T04:49:21;1.40;;;0.60;;
56299;SDS011;42209;6.376;-10.782;2022-11-14T04:52:07;1.40;;;0.80;;
56299;SDS011;42209;6.376;-10.782;2022-11-14T04:54:54;3.22;;;1.23;;
56299;SDS011;42209;6.376;-10.782;2022-11-14T04:57:40;1.75;;;0.90;;
56299;SDS011;42209;6.376;-10.782;2022-11-14T05:00:27;1.92;;;0.70;;
56299;SDS011;42209;6.376;-10.782;2022-11-14T05:03:13;1.55;;;0.82;;
56299;SDS011;42209;6.376;-10.782;2022-11-14T05:06:00;1.63;;;1.10;;
56299;SDS011;42209;6.376;-10.782;2022-11-14T05:08:47;1.00;;;0.65;;
56299;SDS011;42209;6.376;-10.782;2022-11-14T05:11:34;1.88;;;1.02;;
56299;SDS011;42209;6.376;-10.782;2022-11-14T05:14:20;1.63;;;1.00;;
56299;SDS011;42209;6.376;-10.782;2022-11-14T05:17:07;2.13;;;0.90;;
56299;SDS011;42209;6.376;-10.782;2022-11-14T05:19:53;2.75;;;1.00;;
56299;SDS011;42209;6.376;-10.782;2022-11-14T05:22:39;1.10;;;0.77;;
56299;SDS011;42209;6.376;-10.782;2022-11-14T05:25:26;1.75;;;0.82;;
56299;SDS011;42209;6.376;-10.782;2022-11-14T05:28:12;1.75;;;1.05;;
56299;SDS011;42209;6.376;-10.782;2022-11-14T05:30:59;2.00;;;0.98;;
56299;SDS011;42209;6.376;-10.782;2022-11-14T05:33:47;1.50;;;0.60;;
56299;SDS011;42209;6.376;-10.782;2022-11-14T05:36:33;2.15;;;1.38;;
56299;SDS011;42209;6.376;-10.782;2022-11-14T05:39:19;1.35;;;0.90;;
56299;SDS011;42209;6.376;-10.782;2022-11-14T05:42:05;1.88;;;1.00;;
56299;SDS011;42209;6.376;-10.782;2022-11-14T05:44:52;1.75;;;1.20;;
56299;SDS011;42209;6.376;-10.782;2022-11-14T05:47:38;1.77;;;0.90;;
56299;SDS011;42209;6.376;-10.782;2022-11-14T05:50:25;2.60;;;1.60;;
56299;SDS011;42209;6.376;-10.782;2022-11-14T05:53:11;1.48;;;0.70;;
56299;SDS011;42209;6.376;-10.782;2022-11-14T05:56:01;2.95;;;1.35;;
56299;SDS011;42209;6.376;-10.782;2022-11-14T05:58:49;2.00;;;1.35;;
56299;SDS011;42209;6.376;-10.782;2022-11-14T06:01:36;2.08;;;1.55;;
56299;SDS011;42209;6.376;-10.782;2022-11-14T06:04:22;2.45;;;1.00;;
56299;SDS011;42209;6.376;-10.782;2022-11-14T06:07:09;2.47;;;1.52;;
56299;SDS011;42209;6.376;-10.782;2022-11-14T06:10:00;1.90;;;1.20;;
56299;SDS011;42209;6.376;-10.782;2022-11-14T06:12:46;3.22;;;1.30;;
56299;SDS011;42209;6.376;-10.782;2022-11-14T06:15:33;1.98;;;1.33;;
56299;SDS011;42209;6.376;-10.782;2022-11-14T06:18:19;3.35;;;1.10;;
56299;SDS011;42209;6.376;-10.782;2022-11-14T06:21:16;2.75;;;1.35;;
56299;SDS011;42209;6.376;-10.782;2022-11-14T06:24:04;2.78;;;1.42;;
56299;SDS011;42209;6.376;-10.782;2022-11-14T06:26:51;3.15;;;1.23;;
56299;SDS011;42209;6.376;-10.782;2022-11-14T06:29:37;1.80;;;1.17;;
56299;SDS011;42209;6.376;-10.782;2022-11-14T06:32:23;2.55;;;1.58;;
56299;SDS011;42209;6.376;-10.782;2022-11-14T06:35:10;2.88;;;1.50;;
56299;SDS011;42209;6.376;-10.782;2022-11-14T06:37:56;3.30;;;1.23;;
56299;SDS011;42209;6.376;-10.782;2022-11-14T06:40:44;2.60;;;1.60;;
56299;SDS011;42209;6.376;-10.782;2022-11-14T06:43:35;3.35;;;1.55;;
56299;SDS011;42209;6.376;-10.782;2022-11-14T06:46:23;2.25;;;1.08;;
56299;SDS011;42209;6.376;-10.782;2022-11-14T06:49:09;3.00;;;1.60;;
56299;SDS011;42209;6.376;-10.782;2022-11-14T06:51:55;2.25;;;1.05;;
56299;SDS011;42209;6.376;-10.782;2022-11-14T06:54:42;2.38;;;1.85;;
56299;SDS011;42209;6.376;-10.782;2022-11-14T06:57:28;1.67;;;1.33;;
56299;SDS011;42209;6.376;-10.782;2022-11-14T07:00:15;1.80;;;1.20;;
56299;SDS011;42209;6.376;-10.782;2022-11-14T07:03:01;2.22;;;1.58;;
56299;SDS011;42209;6.376;-10.782;2022-11-14T07:05:48;8.35;;;2.15;;
56299;SDS011;42209;6.376;-10.782;2022-11-14T07:08:34;1.88;;;1.30;;
56299;SDS011;42209;6.376;-10.782;2022-11-14T07:11:22;2.58;;;1.50;;
56299;SDS011;42209;6.376;-10.782;2022-11-14T07:14:11;3.10;;;1.40;;
56299;SDS011;42209;6.376;-10.782;2022-11-14T07:16:57;3.20;;;1.40;;
56299;SDS011;42209;6.376;-10.782;2022-11-14T07:19:44;3.38;;;1.50;;
56299;SDS011;42209;6.376;-10.782;2022-11-14T07:22:30;3.25;;;1.65;;
56299;SDS011;42209;6.376;-10.782;2022-11-14T07:25:17;2.33;;;1.50;;
56299;SDS011;42209;6.376;-10.782;2022-11-14T07:28:03;2.25;;;1.45;;
56299;SDS011;42209;6.376;-10.782;2022-11-14T07:30:50;2.85;;;1.70;;
56299;SDS011;42209;6.376;-10.782;2022-11-14T07:33:36;2.67;;;1.85;;
56299;SDS011;42209;6.376;-10.782;2022-11-14T07:36:23;3.30;;;1.73;;
56299;SDS011;42209;6.376;-10.782;2022-11-14T07:39:09;2.15;;;1.60;;
56299;SDS011;42209;6.376;-10.782;2022-11-14T07:41:55;2.35;;;1.50;;
56299;SDS011;42209;6.376;-10.782;2022-11-14T07:44:42;1.98;;;1.38;;
56299;SDS011;42209;6.376;-10.782;2022-11-14T07:47:28;2.72;;;1.48;;
56299;SDS011;42209;6.376;-10.782;2022-11-14T07:50:14;2.85;;;1.70;;
56299;SDS011;42209;6.376;-10.782;2022-11-14T07:53:04;3.05;;;2.10;;
56299;SDS011;42209;6.376;-10.782;2022-11-14T07:55:51;2.45;;;1.63;;
56299;SDS011;42209;6.376;-10.782;2022-11-14T07:58:37;4.43;;;2.05;;
56299;SDS011;42209;6.376;-10.782;2022-11-14T08:01:25;2.13;;;1.70;;
56299;SDS011;42209;6.376;-10.782;2022-11-14T08:04:12;1.88;;;1.60;;
56299;SDS011;42209;6.376;-10.782;2022-11-14T08:06:58;3.25;;;1.90;;
56299;SDS011;42209;6.376;-10.782;2022-11-14T08:09:45;2.28;;;1.67;;
56299;SDS011;42209;6.376;-10.782;2022-11-14T08:12:32;2.35;;;1.98;;
56299;SDS011;42209;6.376;-10.782;2022-11-14T08:15:18;2.00;;;1.83;;
56299;SDS011;42209;6.376;-10.782;2022-11-14T08:18:05;1.55;;;1.25;;
56299;SDS011;42209;6.376;-10.782;2022-11-14T08:20:51;1.60;;;1.48;;
56299;SDS011;42209;6.376;-10.782;2022-11-14T08:23:37;1.50;;;1.23;;
56299;SDS011;42209;6.376;-10.782;2022-11-14T08:26:24;2.67;;;1.50;;
56299;SDS011;42209;6.376;-10.782;2022-11-14T08:29:18;2.05;;;1.55;;
56299;SDS011;42209;6.376;-10.782;2022-11-14T08:32:05;2.25;;;1.80;;
56299;SDS011;42209;6.376;-10.782;2022-11-14T08:34:51;3.28;;;1.88;;
56299;SDS011;42209;6.376;-10.782;2022-11-14T08:37:37;2.15;;;1.80;;
56299;SDS011;42209;6.376;-10.782;2022-11-14T08:40:24;2.38;;;1.77;;
56299;SDS011;42209;6.376;-10.782;2022-11-14T08:43:10;2.10;;;1.90;;
56299;SDS011;42209;6.376;-10.782;2022-11-14T08:45:57;2.58;;;1.45;;
56299;SDS011;42209;6.376;-10.782;2022-11-14T08:48:46;2.28;;;1.60;;
56299;SDS011;42209;6.376;-10.782;2022-11-14T08:51:32;3.22;;;1.92;;
56299;SDS011;42209;6.376;-10.782;2022-11-14T08:54:20;2.20;;;1.83;;
56299;SDS011;42209;6.376;-10.782;2022-11-14T08:57:07;1.63;;;1.50;;
56299;SDS011;42209;6.376;-10.782;2022-11-14T08:59:54;2.35;;;1.40;;
56299;SDS011;42209;6.376;-10.782;2022-11-14T09:02:40;2.70;;;1.98;;
56299;SDS011;42209;6.376;-10.782;2022-11-14T09:05:27;3.13;;;1.80;;
56299;SDS011;42209;6.376;-10.782;2022-11-14T09:08:13;1.60;;;1.02;;
56299;SDS011;42209;6.376;-10.782;2022-11-14T09:11:00;1.30;;;1.17;;
56299;SDS011;42209;6.376;-10.782;2022-11-14T09:13:50;1.92;;;1.33;;
56299;SDS011;42209;6.376;-10.782;2022-11-14T09:16:37;2.47;;;1.60;;
56299;SDS011;42209;6.376;-10.782;2022-11-14T09:19:23;1.63;;;1.17;;
56299;SDS011;42209;6.376;-10.782;2022-11-14T09:22:09;2.05;;;1.33;;
56299;SDS011;42209;6.376;-10.782;2022-11-14T09:24:56;2.70;;;1.20;;
56299;SDS011;42209;6.376;-10.782;2022-11-14T09:27:42;1.55;;;1.30;;
56299;SDS011;42209;6.376;-10.782;2022-11-14T09:30:29;2.58;;;1.60;;
56299;SDS011;42209;6.376;-10.782;2022-11-14T09:33:15;3.95;;;1.23;;
56299;SDS011;42209;6.376;-10.782;2022-11-14T09:36:03;2.33;;;1.70;;
56299;SDS011;42209;6.376;-10.782;2022-11-14T09:38:52;2.10;;;1.73;;
56299;SDS011;42209;6.376;-10.782;2022-11-14T09:45:02;1.40;;;1.10;;
56299;SDS011;42209;6.376;-10.782;2022-11-14T09:47:54;4.10;;;1.63;;
56299;SDS011;42209;6.376;-10.782;2022-11-14T09:50:49;3.78;;;1.48;;
56299;SDS011;42209;6.376;-10.782;2022-11-14T09:53:50;3.38;;;1.65;;
56299;SDS011;42209;6.376;-10.782;2022-11-14T09:56:57;2.63;;;1.88;;
56299;SDS011;42209;6.376;-10.782;2022-11-14T09:59:44;3.30;;;2.00;;
56299;SDS011;42209;6.376;-10.782;2022-11-14T10:02:46;2.70;;;1.80;;
56299;SDS011;42209;6.376;-10.782;2022-11-14T10:06:11;5.10;;;1.60;;
56299;SDS011;42209;6.376;-10.782;2022-11-14T10:12:39;4.60;;;1.90;;
56299;SDS011;42209;6.376;-10.782;2022-11-14T10:15:39;4.65;;;2.15;;
56299;SDS011;42209;6.376;-10.782;2022-11-14T10:34:53;4.45;;;1.95;;
56299;SDS011;42209;6.376;-10.782;2022-11-14T10:40:57;3.25;;;2.42;;
56299;SDS011;42209;6.376;-10.782;2022-11-14T10:43:47;3.97;;;2.50;;
56299;SDS011;42209;6.376;-10.782;2022-11-14T10:49:23;4.55;;;2.28;;
56299;SDS011;42209;6.376;-10.782;2022-11-14T10:52:19;4.70;;;2.33;;
56299;SDS011;42209;6.376;-10.782;2022-11-14T10:55:12;2.63;;;1.98;;
56299;SDS011;42209;6.376;-10.782;2022-11-14T10:58:06;3.20;;;2.10;;
56299;SDS011;42209;6.376;-10.782;2022-11-14T11:00:55;2.60;;;1.67;;
56299;SDS011;42209;6.376;-10.782;2022-11-14T11:03:43;3.13;;;1.73;;
56299;SDS011;42209;6.376;-10.782;2022-11-14T11:06:30;3.88;;;2.03;;
56299;SDS011;42209;6.376;-10.782;2022-11-14T11:09:18;3.13;;;1.98;;
56299;SDS011;42209;6.376;-10.782;2022-11-14T11:12:14;2.22;;;1.23;;
56299;SDS011;42209;6.376;-10.782;2022-11-14T11:15:13;2.33;;;1.90;;
56299;SDS011;42209;6.376;-10.782;2022-11-14T11:18:32;3.63;;;1.67;;
56299;SDS011;42209;6.376;-10.782;2022-11-14T11:21:21;2.25;;;1.65;;
56299;SDS011;42209;6.376;-10.782;2022-11-14T11:30:07;3.47;;;1.90;;
56299;SDS011;42209;6.376;-10.782;2022-11-14T11:32:54;2.42;;;1.50;;
56299;SDS011;42209;6.376;-10.782;2022-11-14T11:35:40;2.83;;;1.45;;
56299;SDS011;42209;6.376;-10.782;2022-11-14T11:38:28;2.37;;;1.80;;
56299;SDS011;42209;6.376;-10.782;2022-11-14T11:44:45;2.17;;;1.33;;
56299;SDS011;42209;6.376;-10.782;2022-11-14T11:47:35;1.77;;;1.10;;
56299;SDS011;42209;6.376;-10.782;2022-11-14T11:50:22;2.67;;;1.67;;
56299;SDS011;42209;6.376;-10.782;2022-11-14T11:53:23;2.38;;;1.88;;
56299;SDS011;42209;6.376;-10.782;2022-11-14T11:56:20;2.78;;;1.88;;
56299;SDS011;42209;6.376;-10.782;2022-11-14T11:59:30;3.83;;;1.77;;
56299;SDS011;42209;6.376;-10.782;2022-11-14T12:02:23;2.58;;;1.85;;
56299;SDS011;42209;6.376;-10.782;2022-11-14T12:05:37;2.70;;;1.85;;
56299;SDS011;42209;6.376;-10.782;2022-11-14T12:11:36;3.35;;;1.98;;
56299;SDS011;42209;6.376;-10.782;2022-11-14T12:17:29;3.10;;;2.30;;
56299;SDS011;42209;6.376;-10.782;2022-11-14T12:33:03;2.80;;;2.10;;
56299;SDS011;42209;6.376;-10.782;2022-11-14T12:36:02;3.45;;;2.40;;
56299;SDS011;42209;6.376;-10.782;2022-11-14T12:38:52;3.00;;;1.45;;
56299;SDS011;42209;6.376;-10.782;2022-11-14T12:41:40;3.55;;;1.95;;
56299;SDS011;42209;6.376;-10.782;2022-11-14T12:47:15;3.65;;;2.55;;
56299;SDS011;42209;6.376;-10.782;2022-11-14T12:50:03;1.85;;;1.63;;
56299;SDS011;42209;6.376;-10.782;2022-11-14T12:56:21;4.43;;;1.95;;
56299;SDS011;42209;6.376;-10.782;2022-11-14T13:05:28;2.30;;;1.67;;
56299;SDS011;42209;6.376;-10.782;2022-11-14T13:11:46;4.88;;;2.83;;
56299;SDS011;42209;6.376;-10.782;2022-11-14T13:14:49;355.88;;;30.02;;
56299;SDS011;42209;6.376;-10.782;2022-11-14T13:17:40;178.55;;;18.90;;
56299;SDS011;42209;6.376;-10.782;2022-11-14T13:20:31;134.90;;;13.83;;
56299;SDS011;42209;6.376;-10.782;2022-11-14T13:28:59;78.43;;;10.93;;
56299;SDS011;42209;6.376;-10.782;2022-11-14T13:31:47;67.30;;;10.35;;
56299;SDS011;42209;6.376;-10.782;2022-11-14T13:34:51;51.63;;;8.35;;
56299;SDS011;42209;6.376;-10.782;2022-11-14T13:41:18;53.20;;;8.32;;
56299;SDS011;42209;6.376;-10.782;2022-11-14T13:50:28;38.42;;;7.43;;
56299;SDS011;42209;6.376;-10.782;2022-11-14T13:53:19;40.33;;;7.63;;
56299;SDS011;42209;6.376;-10.782;2022-11-14T13:56:18;31.77;;;6.93;;
56299;SDS011;42209;6.376;-10.782;2022-11-14T13:59:50;26.10;;;6.97;;
56299;SDS011;42209;6.376;-10.782;2022-11-14T14:12:20;18.92;;;5.18;;
56299;SDS011;42209;6.376;-10.782;2022-11-14T14:15:41;14.98;;;4.80;;
56299;SDS011;42209;6.376;-10.782;2022-11-14T14:25:03;16.27;;;5.85;;
56299;SDS011;42209;6.376;-10.782;2022-11-14T14:31:20;15.50;;;4.20;;
56299;SDS011;42209;6.376;-10.782;2022-11-14T14:34:41;12.13;;;5.55;;
56299;SDS011;42209;6.376;-10.782;2022-11-14T14:37:21;15.13;;;5.28;;
56299;SDS011;42209;6.376;-10.782;2022-11-14T14:40:20;14.13;;;4.82;;
56299;SDS011;42209;6.376;-10.782;2022-11-14T14:43:12;11.75;;;5.13;;
56299;SDS011;42209;6.376;-10.782;2022-11-14T14:46:28;11.32;;;4.90;;
56299;SDS011;42209;6.376;-10.782;2022-11-14T14:49:25;10.77;;;4.15;;
56299;SDS011;42209;6.376;-10.782;2022-11-14T14:52:30;7.03;;;3.93;;
56299;SDS011;42209;6.376;-10.782;2022-11-14T14:55:23;9.02;;;4.28;;
56299;SDS011;42209;6.376;-10.782;2022-11-14T14:58:15;8.35;;;3.55;;
56299;SDS011;42209;6.376;-10.782;2022-11-14T15:04:17;6.90;;;3.65;;
56299;SDS011;42209;6.376;-10.782;2022-11-14T15:10:03;7.82;;;4.28;;
56299;SDS011;42209;6.376;-10.782;2022-11-14T15:12:52;7.10;;;3.65;;
56299;SDS011;42209;6.376;-10.782;2022-11-14T15:15:39;7.95;;;4.00;;
56299;SDS011;42209;6.376;-10.782;2022-11-14T15:18:27;6.80;;;3.55;;
56299;SDS011;42209;6.376;-10.782;2022-11-14T15:27:02;7.88;;;4.18;;
56299;SDS011;42209;6.376;-10.782;2022-11-14T15:29:51;6.55;;;3.83;;
56299;SDS011;42209;6.376;-10.782;2022-11-14T15:32:38;8.75;;;4.13;;
56299;SDS011;42209;6.376;-10.782;2022-11-14T15:35:35;8.18;;;4.60;;
56299;SDS011;42209;6.376;-10.782;2022-11-14T15:38:23;8.85;;;4.32;;
56299;SDS011;42209;6.376;-10.782;2022-11-14T15:41:31;9.20;;;4.45;;
56299;SDS011;42209;6.376;-10.782;2022-11-14T15:44:28;5.35;;;3.30;;
56299;SDS011;42209;6.376;-10.782;2022-11-14T15:53:01;5.22;;;4.00;;
56299;SDS011;42209;6.376;-10.782;2022-11-14T15:55:50;5.97;;;3.92;;
56299;SDS011;42209;6.376;-10.782;2022-11-14T15:58:36;5.20;;;3.95;;
56299;SDS011;42209;6.376;-10.782;2022-11-14T16:01:23;5.53;;;4.03;;
56299;SDS011;42209;6.376;-10.782;2022-11-14T16:04:13;4.97;;;3.33;;
56299;SDS011;42209;6.376;-10.782;2022-11-14T16:07:03;7.15;;;4.07;;
56299;SDS011;42209;6.376;-10.782;2022-11-14T16:09:50;6.13;;;4.20;;
56299;SDS011;42209;6.376;-10.782;2022-11-14T16:12:37;7.55;;;4.07;;
56299;SDS011;42209;6.376;-10.782;2022-11-14T16:15:23;5.75;;;4.00;;
56299;SDS011;42209;6.376;-10.782;2022-11-14T16:18:10;5.30;;;3.85;;
56299;SDS011;42209;6.376;-10.782;2022-11-14T16:20:57;4.60;;;3.90;;
56299;SDS011;42209;6.376;-10.782;2022-11-14T16:23:44;5.38;;;3.38;;
56299;SDS011;42209;6.376;-10.782;2022-11-14T16:26:31;5.85;;;3.67;;
56299;SDS011;42209;6.376;-10.782;2022-11-14T16:29:17;6.93;;;3.80;;
56299;SDS011;42209;6.376;-10.782;2022-11-14T16:32:03;4.43;;;3.40;;
56299;SDS011;42209;6.376;-10.782;2022-11-14T16:34:50;6.05;;;3.45;;
56299;SDS011;42209;6.376;-10.782;2022-11-14T16:37:36;5.60;;;4.18;;
56299;SDS011;42209;6.376;-10.782;2022-11-14T16:40:24;4.95;;;3.78;;
56299;SDS011;42209;6.376;-10.782;2022-11-14T16:43:12;5.65;;;3.58;;
56299;SDS011;42209;6.376;-10.782;2022-11-14T16:46:06;6.05;;;3.60;;
56299;SDS011;42209;6.376;-10.782;2022-11-14T16:48:54;4.97;;;3.78;;
56299;SDS011;42209;6.376;-10.782;2022-11-14T16:51:41;4.82;;;3.58;;
56299;SDS011;42209;6.376;-10.782;2022-11-14T16:54:33;5.18;;;3.60;;
56299;SDS011;42209;6.376;-10.782;2022-11-14T16:57:20;6.03;;;4.40;;
56299;SDS011;42209;6.376;-10.782;2022-11-14T17:00:07;5.10;;;3.65;;
56299;SDS011;42209;6.376;-10.782;2022-11-14T17:02:56;5.40;;;3.90;;
56299;SDS011;42209;6.376;-10.782;2022-11-14T17:05:43;5.78;;;3.40;;
56299;SDS011;42209;6.376;-10.782;2022-11-14T17:08:31;4.18;;;3.55;;
56299;SDS011;42209;6.376;-10.782;2022-11-14T17:11:17;3.33;;;2.97;;
56299;SDS011;42209;6.376;-10.782;2022-11-14T17:14:03;4.63;;;3.55;;
56299;SDS011;42209;6.376;-10.782;2022-11-14T17:16:50;8.10;;;3.90;;
56299;SDS011;42209;6.376;-10.782;2022-11-14T17:19:36;5.47;;;3.65;;
56299;SDS011;42209;6.376;-10.782;2022-11-14T17:22:23;5.20;;;3.17;;
56299;SDS011;42209;6.376;-10.782;2022-11-14T17:25:10;4.43;;;3.40;;
56299;SDS011;42209;6.376;-10.782;2022-11-14T17:27:56;6.13;;;4.22;;
56299;SDS011;42209;6.376;-10.782;2022-11-14T17:30:43;5.80;;;3.25;;
56299;SDS011;42209;6.376;-10.782;2022-11-14T17:33:29;5.68;;;3.58;;
56299;SDS011;42209;6.376;-10.782;2022-11-14T17:36:17;6.53;;;3.67;;
56299;SDS011;42209;6.376;-10.782;2022-11-14T17:39:04;5.87;;;3.67;;
56299;SDS011;42209;6.376;-10.782;2022-11-14T17:41:51;5.53;;;4.00;;
56299;SDS011;42209;6.376;-10.782;2022-11-14T17:44:37;5.85;;;4.25;;
56299;SDS011;42209;6.376;-10.782;2022-11-14T17:47:23;8.32;;;4.15;;
56299;SDS011;42209;6.376;-10.782;2022-11-14T17:50:10;4.90;;;4.28;;
56299;SDS011;42209;6.376;-10.782;2022-11-14T17:52:57;6.60;;;4.03;;
56299;SDS011;42209;6.376;-10.782;2022-11-14T17:55:43;8.90;;;5.00;;
56299;SDS011;42209;6.376;-10.782;2022-11-14T17:58:30;7.63;;;4.50;;
56299;SDS011;42209;6.376;-10.782;2022-11-14T18:01:18;4.47;;;3.42;;
56299;SDS011;42209;6.376;-10.782;2022-11-14T18:04:06;6.40;;;4.65;;
56299;SDS011;42209;6.376;-10.782;2022-11-14T18:06:53;6.88;;;5.00;;
56299;SDS011;42209;6.376;-10.782;2022-11-14T18:09:40;6.05;;;4.40;;
56299;SDS011;42209;6.376;-10.782;2022-11-14T18:12:27;9.13;;;5.40;;
56299;SDS011;42209;6.376;-10.782;2022-11-14T18:15:13;5.93;;;4.85;;
56299;SDS011;42209;6.376;-10.782;2022-11-14T18:18:00;7.90;;;5.53;;
56299;SDS011;42209;6.376;-10.782;2022-11-14T18:20:46;7.30;;;5.07;;
56299;SDS011;42209;6.376;-10.782;2022-11-14T18:23:32;9.32;;;5.18;;
56299;SDS011;42209;6.376;-10.782;2022-11-14T18:26:19;6.38;;;4.70;;
56299;SDS011;42209;6.376;-10.782;2022-11-14T18:29:07;9.07;;;5.50;;
56299;SDS011;42209;6.376;-10.782;2022-11-14T18:31:53;7.10;;;5.60;;
56299;SDS011;42209;6.376;-10.782;2022-11-14T18:34:40;6.93;;;5.30;;
56299;SDS011;42209;6.376;-10.782;2022-11-14T18:37:27;8.23;;;5.70;;
56299;SDS011;42209;6.376;-10.782;2022-11-14T18:40:14;9.15;;;5.47;;
56299;SDS011;42209;6.376;-10.782;2022-11-14T18:43:01;6.35;;;4.95;;
56299;SDS011;42209;6.376;-10.782;2022-11-14T18:45:48;9.18;;;5.45;;
56299;SDS011;42209;6.376;-10.782;2022-11-14T18:48:35;8.38;;;5.45;;
56299;SDS011;42209;6.376;-10.782;2022-11-14T18:51:24;8.05;;;5.43;;
56299;SDS011;42209;6.376;-10.782;2022-11-14T18:54:13;7.80;;;5.50;;